Time;durP1;ratioP1;P1;durP2;ratioP2;P2;SDS_P1;SDS_P2;PMS_P1;PMS_P2;Temp;Humidity;BMP_temperature;BMP_pressure;BME280_temperature;BME280_humidity;BME280_pressure;Samples;Min_cycle;Max_cycle;Signal;HPM_P1;HPM_P2
2021/06/23 00:01:26;;;;;;;7.20;3.97;;;;;;;24.15;36.05;102413.03;5072575;28;20078;-81
2021/06/23 00:03:52;;;;;;;5.30;3.60;;;;;;;24.22;35.54;102410.38;5072554;28;20099;-80
2021/06/23 00:06:18;;;;;;;3.45;2.90;;;;;;;24.37;35.35;102403.16;5054409;28;20024;-78
2021/06/23 00:08:44;;;;;;;6.32;3.28;;;;;;;24.41;35.02;102419.97;5072175;28;20035;-77
2021/06/23 00:11:09;;;;;;;4.85;2.92;;;;;;;24.29;35.24;102416.13;5054171;28;20123;-82
2021/06/23 00:13:37;;;;;;;5.47;2.78;;;;;;;24.08;35.39;102410.06;5054519;28;20059;-77
2021/06/23 00:16:06;;;;;;;10.13;3.83;;;;;;;24.30;35.00;102403.78;5073889;28;20108;-79
2021/06/23 00:18:32;;;;;;;4.78;2.90;;;;;;;24.32;35.17;102406.19;5058230;28;20055;-79
2021/06/23 00:20:57;;;;;;;5.45;2.90;;;;;;;24.33;34.92;102410.63;5058067;28;20467;-79
2021/06/23 00:23:23;;;;;;;11.10;4.03;;;;;;;24.24;35.16;102404.44;5076215;28;20067;-78
2021/06/23 00:25:49;;;;;;;4.38;2.88;;;;;;;24.39;35.07;102408.38;5076025;28;20036;-77
2021/06/23 00:28:15;;;;;;;6.32;2.90;;;;;;;24.22;35.43;102404.81;5076023;28;20025;-76
2021/06/23 00:30:40;;;;;;;5.07;3.55;;;;;;;24.38;34.93;102403.97;5058029;28;20116;-78
2021/06/23 00:33:08;;;;;;;3.60;2.83;;;;;;;24.35;34.99;102402.72;5075781;28;20022;-77
2021/06/23 00:35:35;;;;;;;7.68;3.70;;;;;;;24.34;34.89;102401.09;5075923;28;20051;-79
2021/06/23 00:38:02;;;;;;;6.03;4.07;;;;;;;24.01;35.73;102398.75;5075758;28;20021;-80
2021/06/23 00:40:28;;;;;;;7.45;4.70;;;;;;;24.04;35.84;102406.41;5075765;28;20504;-79
2021/06/23 00:42:54;;;;;;;5.38;4.25;;;;;;;24.14;35.64;102400.25;5075687;28;20023;-82
2021/06/23 00:45:20;;;;;;;5.63;4.30;;;;;;;24.12;35.45;102396.22;5057620;28;20021;-78
2021/06/23 00:47:48;;;;;;;7.75;5.68;;;;;;;24.03;35.94;102391.66;5074648;28;20024;-78
2021/06/23 00:50:16;;;;;;;6.85;5.15;;;;;;;23.88;36.20;102395.28;5075259;28;20023;-78
2021/06/23 00:52:43;;;;;;;6.68;4.95;;;;;;;24.00;35.74;102394.34;5075608;28;20494;-78
2021/06/23 00:55:10;;;;;;;6.93;5.53;;;;;;;23.97;35.96;102387.53;5075500;28;20074;-79
2021/06/23 00:57:39;;;;;;;6.70;6.00;;;;;;;23.93;36.48;102391.41;5075007;28;20057;-82
2021/06/23 01:00:08;;;;;;;11.27;7.35;;;;;;;24.08;35.68;102396.91;5075373;28;20406;-77
2021/06/23 01:02:34;;;;;;;11.00;6.72;;;;;;;24.09;35.82;102394.94;5057406;28;20497;-76
2021/06/23 01:05:00;;;;;;;8.23;6.35;;;;;;;23.88;36.43;102388.88;5075377;28;20471;-79
2021/06/23 01:07:25;;;;;;;6.40;5.75;;;;;;;23.94;36.47;102391.03;5075345;28;20024;-78
2021/06/23 01:09:56;;;;;;;6.90;5.90;;;;;;;23.95;36.40;102381.47;5075183;28;20031;-80
2021/06/23 01:12:27;;;;;;;5.88;5.13;;;;;;;23.89;36.51;102384.94;5075177;28;20074;-80
2021/06/23 01:15:00;;;;;;;4.80;4.22;;;;;;;23.67;37.35;102384.44;5057240;28;20552;-77
2021/06/23 01:17:34;;;;;;;6.28;4.57;;;;;;;23.58;37.75;102392.19;5057298;28;20024;-76
2021/06/23 01:20:12;;;;;;;5.20;4.53;;;;;;;23.84;37.16;102382.41;5075174;28;20035;-79
2021/06/23 01:22:39;;;;;;;4.68;4.15;;;;;;;23.79;37.14;102383.50;5075088;28;20082;-78
2021/06/23 01:25:09;;;;;;;5.20;4.50;;;;;;;23.94;36.90;102381.84;5056830;28;20410;-77
2021/06/23 01:27:35;;;;;;;;;;;;;;;24.00;37.02;102385.97;5056904;28;20032;-78
2021/06/23 01:30:00;;;;;;;6.35;4.55;;;;;;;23.79;37.31;102391.88;5075139;28;19919;-83
2021/06/23 01:32:26;;;;;;;6.55;4.95;;;;;;;23.90;37.33;102378.19;5074546;28;20020;-79
2021/06/23 01:34:52;;;;;;;7.85;5.35;;;;;;;23.88;37.48;102384.13;5074698;28;20033;-78
2021/06/23 01:37:17;;;;;;;11.43;5.25;;;;;;;23.91;37.61;102385.38;5056619;28;20377;-77
2021/06/23 01:39:43;;;;;;;5.57;4.65;;;;;;;23.96;37.35;102385.09;5056472;28;20036;-77
2021/06/23 01:42:08;;;;;;;6.60;4.97;;;;;;;23.85;37.82;102379.25;5074990;28;20024;-86
2021/06/23 01:44:34;;;;;;;6.03;4.82;;;;;;;23.89;37.87;102384.94;5074705;28;20036;-80
2021/06/23 01:47:02;;;;;;;6.65;5.13;;;;;;;23.97;37.64;102369.97;5074796;28;20047;-75
2021/06/23 01:49:28;;;;;;;10.05;5.20;;;;;;;23.86;37.96;102366.91;5074734;28;20073;-78
2021/06/23 01:51:54;;;;;;;6.10;4.90;;;;;;;23.94;37.86;102370.66;5056655;28;20369;-75
2021/06/23 01:54:20;;;;;;;6.05;4.68;;;;;;;23.84;38.13;102368.47;5056812;28;20075;-76
2021/06/23 01:56:46;;;;;;;6.20;4.80;;;;;;;23.87;37.74;102362.13;5056696;28;20119;-75
2021/06/23 01:59:13;;;;;;;6.70;5.07;;;;;;;23.74;38.43;102364.28;5074738;28;20116;-77
2021/06/23 02:02:20;;;;;;;6.63;4.55;;;;;;;23.82;38.26;102368.03;5073268;28;20386;-78
2021/06/23 02:04:57;;;;;;;5.82;4.85;;;;;;;23.92;37.84;102361.88;5066370;28;20036;-76
2021/06/23 02:07:44;;;;;;;6.55;5.00;;;;;;;23.98;37.90;102371.56;5074360;28;20029;-80
2021/06/23 02:10:31;;;;;;;8.10;5.07;;;;;;;23.94;38.25;102365.91;5074162;28;20063;-81
2021/06/23 02:13:14;;;;;;;10.55;5.57;;;;;;;23.90;38.30;102369.81;5074336;28;20154;-81
2021/06/23 02:15:40;;;;;;;8.98;4.18;;;;;;;23.94;38.02;102363.09;5074007;28;20032;-79
2021/06/23 02:18:07;;;;;;;4.32;3.72;;;;;;;23.95;38.15;102369.50;5073858;28;20488;-79
2021/06/23 02:20:35;;;;;;;6.45;4.00;;;;;;;23.83;38.38;102364.06;5074022;28;20133;-76
2021/06/23 02:23:06;;;;;;;5.20;3.63;;;;;;;23.91;38.21;102357.47;5073922;28;20017;-76
2021/06/23 02:25:32;;;;;;;5.93;4.30;;;;;;;23.88;38.03;102360.97;5074101;28;20052;-77
2021/06/23 02:27:57;;;;;;;4.40;3.25;;;;;;;23.81;38.40;102358.84;5073808;28;20129;-78
2021/06/23 02:30:23;;;;;;;5.07;3.30;;;;;;;23.98;37.90;102366.00;5072551;28;20367;-78
2021/06/23 02:32:49;;;;;;;5.47;3.75;;;;;;;23.96;38.14;102358.00;5073750;28;20060;-78
2021/06/23 02:35:15;;;;;;;4.07;3.60;;;;;;;23.96;37.85;102362.75;5073871;28;20486;-77
2021/06/23 02:37:41;;;;;;;4.00;3.15;;;;;;;23.85;38.17;102344.97;5073693;28;20021;-76
2021/06/23 02:40:08;;;;;;;3.83;3.20;;;;;;;23.93;38.24;102346.72;5073603;28;20032;-78
2021/06/23 02:42:34;;;;;;;3.78;3.03;;;;;;;23.95;37.79;102345.19;5073653;28;20024;-77
2021/06/23 02:45:00;;;;;;;3.92;3.08;;;;;;;23.99;38.06;102345.28;5073675;28;20016;-77
2021/06/23 02:47:27;;;;;;;3.75;2.72;;;;;;;23.93;38.16;102341.94;5073602;28;20095;-76
2021/06/23 02:49:52;;;;;;;4.45;3.22;;;;;;;24.00;37.88;102335.72;5073522;28;20059;-78
2021/06/23 02:52:19;;;;;;;4.70;3.70;;;;;;;23.92;38.30;102336.75;5073571;28;20056;-82
2021/06/23 02:54:45;;;;;;;4.60;3.85;;;;;;;23.93;38.32;102336.38;5073414;28;20020;-78
2021/06/23 02:57:11;;;;;;;3.63;3.08;;;;;;;23.79;38.56;102336.84;5073038;28;20472;-77
2021/06/23 02:59:37;;;;;;;4.32;3.47;;;;;;;23.90;38.19;102337.13;5073240;28;20032;-81
2021/06/23 03:02:04;;;;;;;4.40;3.60;;;;;;;23.89;38.27;102332.72;5073194;28;20024;-77
2021/06/23 03:04:31;;;;;;;4.93;3.55;;;;;;;23.92;38.31;102333.94;5073316;28;20024;-80
2021/06/23 03:07:18;;;;;;;5.70;3.20;;;;;;;23.89;38.16;102332.72;5073304;28;20033;-77
2021/06/23 03:09:44;;;;;;;3.55;2.97;;;;;;;23.91;37.91;102332.34;5072901;28;20071;-80
2021/06/23 03:12:12;;;;;;;3.75;2.80;;;;;;;23.92;38.26;102331.16;5073192;28;20031;-78
2021/06/23 03:14:38;;;;;;;4.53;3.08;;;;;;;24.00;38.15;102327.34;5073043;28;20467;-76
2021/06/23 03:17:04;;;;;;;3.90;3.22;;;;;;;23.98;37.83;102322.13;5073133;28;20036;-80
2021/06/23 03:19:29;;;;;;;4.57;3.15;;;;;;;23.97;38.30;102328.88;5055103;28;20037;-83
2021/06/23 03:21:55;;;;;;;4.28;3.38;;;;;;;23.98;38.25;102327.72;5073048;28;20109;-83
2021/06/23 03:24:22;;;;;;;4.95;3.53;;;;;;;24.00;38.44;102328.16;5072832;28;20049;-81
2021/06/23 03:26:47;;;;;;;4.70;3.33;;;;;;;23.97;38.40;102328.09;5073092;28;20078;-81
2021/06/23 03:29:32;;;;;;;4.35;3.28;;;;;;;23.94;38.30;102320.41;5072991;28;20033;-79
2021/06/23 03:31:58;;;;;;;4.55;3.72;;;;;;;23.96;38.43;102320.88;5072539;28;20051;-79
2021/06/23 03:34:24;;;;;;;3.90;2.70;;;;;;;23.93;38.36;102318.81;5060201;28;20402;-77
2021/06/23 03:36:51;;;;;;;4.00;3.40;;;;;;;23.98;38.10;102318.53;5052752;28;20108;-84
2021/06/23 03:39:17;;;;;;;4.30;2.90;;;;;;;24.04;37.86;102306.72;5052700;28;20043;-82
2021/06/23 03:41:43;;;;;;;5.70;3.97;;;;;;;24.02;38.11;102297.06;5052767;28;20040;-79
2021/06/23 03:44:08;;;;;;;7.55;4.00;;;;;;;24.01;38.34;102304.63;5052667;28;20029;-81
2021/06/23 03:46:34;;;;;;;5.07;3.83;;;;;;;23.99;38.19;102311.78;5052765;28;20099;-82
2021/06/23 03:49:00;;;;;;;4.72;3.92;;;;;;;23.98;38.42;102312.94;5052754;28;20509;-77
2021/06/23 03:51:25;;;;;;;5.55;3.88;;;;;;;23.84;38.57;102309.84;5054931;28;20033;-78
2021/06/23 03:53:51;;;;;;;4.82;4.03;;;;;;;23.91;38.44;102323.97;5056890;28;20534;-80
2021/06/23 03:56:17;;;;;;;6.45;4.25;;;;;;;23.77;38.67;102308.53;5056710;28;20501;-79
2021/06/23 03:58:43;;;;;;;7.38;5.45;;;;;;;23.84;38.65;102313.44;5056329;28;20102;-81
2021/06/23 04:01:10;;;;;;;5.93;4.63;;;;;;;23.89;38.58;102312.34;5056544;28;20033;-78
2021/06/23 04:03:35;;;;;;;5.63;4.28;;;;;;;23.92;38.35;102309.63;5056467;28;20078;-77
2021/06/23 04:06:01;;;;;;;8.45;3.92;;;;;;;23.83;38.73;102311.84;5056514;28;20116;-78
2021/06/23 04:08:27;;;;;;;6.88;4.25;;;;;;;23.80;39.16;102306.97;5056391;28;20033;-76
2021/06/23 04:10:53;;;;;;;5.53;4.28;;;;;;;23.85;38.44;102314.25;5056357;28;20029;-78
2021/06/23 04:13:18;;;;;;;8.80;5.47;;;;;;;23.73;38.83;102310.44;5056560;28;20029;-78
2021/06/23 04:15:44;;;;;;;5.38;4.10;;;;;;;23.80;38.81;102312.56;5056419;28;20060;-80
2021/06/23 04:18:09;;;;;;;4.97;3.83;;;;;;;23.74;38.97;102312.06;5056132;28;20032;-74
2021/06/23 04:20:35;;;;;;;5.93;4.35;;;;;;;23.78;38.80;102312.91;5056016;28;20498;-74
2021/06/23 04:23:01;;;;;;;4.00;3.25;;;;;;;23.80;38.82;102312.56;5055885;28;20029;-75
2021/06/23 04:25:26;;;;;;;6.82;4.07;;;;;;;23.80;39.06;102309.75;5055845;28;20032;-76
2021/06/23 04:27:52;;;;;;;6.65;3.75;;;;;;;23.85;38.61;102314.25;5056184;28;20064;-78
2021/06/23 04:30:18;;;;;;;5.80;3.45;;;;;;;23.90;38.82;102312.00;5055836;28;20036;-80
2021/06/23 04:32:43;;;;;;;5.53;3.03;;;;;;;23.92;38.79;102311.63;5054782;28;20068;-77
2021/06/23 04:35:10;;;;;;;3.88;2.67;;;;;;;23.96;38.84;102312.50;5055836;28;20115;-76
2021/06/23 04:37:38;;;;;;;3.40;2.67;;;;;;;23.91;38.88;102310.00;5055832;28;20159;-84
2021/06/23 04:40:06;;;;;;;5.60;3.47;;;;;;;23.80;39.01;102309.75;5055560;28;20536;-77
2021/06/23 04:42:32;;;;;;;4.32;3.25;;;;;;;23.78;39.31;102310.13;5055734;28;20110;-77
2021/06/23 04:44:57;;;;;;;6.40;3.03;;;;;;;23.79;39.29;102303.38;5055682;28;20112;-78
2021/06/23 04:47:23;;;;;;;4.95;3.10;;;;;;;23.83;39.21;102308.25;5055701;28;20106;-78
2021/06/23 04:49:49;;;;;;;5.75;2.75;;;;;;;23.93;39.22;102302.06;5070135;28;20486;-80
2021/06/23 04:52:14;;;;;;;5.60;2.70;;;;;;;23.78;38.98;102304.53;5074630;28;20033;-80
2021/06/23 04:54:40;;;;;;;6.75;3.53;;;;;;;23.82;39.28;102309.41;5074907;28;20028;-78
2021/06/23 04:57:06;;;;;;;9.50;3.33;;;;;;;23.81;39.15;102300.25;5074300;28;20048;-84
2021/06/23 04:59:31;;;;;;;6.70;3.20;;;;;;;23.91;39.18;102302.44;5056450;28;20033;-83
2021/06/23 05:01:57;;;;;;;5.68;3.65;;;;;;;23.90;38.93;102308.41;5073495;28;20032;-77
2021/06/23 05:04:23;;;;;;;6.70;4.05;;;;;;;23.92;39.13;102303.25;5071393;28;20479;-81
2021/06/23 05:06:49;;;;;;;10.70;4.55;;;;;;;23.93;39.22;102310.44;5074744;28;20033;-79
2021/06/23 05:09:14;;;;;;;7.10;4.20;;;;;;;23.86;39.19;102307.50;5074730;28;20108;-77
2021/06/23 05:11:40;;;;;;;6.40;3.83;;;;;;;23.95;39.12;102311.69;5056236;28;20174;-80
2021/06/23 05:14:07;;;;;;;7.75;3.83;;;;;;;23.92;39.42;102308.81;5074281;28;20024;-77
2021/06/23 05:16:35;;;;;;;4.43;3.78;;;;;;;24.00;39.55;102302.22;5074141;28;20524;-78
2021/06/23 05:19:01;;;;;;;9.20;4.60;;;;;;;23.95;39.12;102310.88;5073838;28;20426;-76
2021/06/23 05:21:27;;;;;;;7.00;4.40;;;;;;;23.95;39.36;102308.06;5074090;28;20154;-87
2021/06/23 05:23:53;;;;;;;6.05;4.82;;;;;;;23.91;39.57;102305.22;5074004;28;20020;-76
2021/06/23 05:26:21;;;;;;;6.15;4.85;;;;;;;23.98;39.51;102310.16;5073867;28;20038;-77
2021/06/23 05:28:47;;;;;;;6.20;5.03;;;;;;;23.98;39.15;102308.16;5074064;28;20193;-76
2021/06/23 05:31:12;;;;;;;5.38;4.70;;;;;;;23.88;39.60;102311.56;5073944;28;20651;-76
2021/06/23 05:33:38;;;;;;;13.18;6.47;;;;;;;23.91;39.31;102310.00;5073949;28;20034;-83
2021/06/23 05:36:04;;;;;;;8.52;5.75;;;;;;;24.03;39.32;102310.69;5074105;28;20024;-86
2021/06/23 05:38:29;;;;;;;10.18;5.88;;;;;;;23.85;39.54;102305.88;5074040;28;20033;-77
2021/06/23 05:40:55;;;;;;;11.38;6.75;;;;;;;23.74;40.01;102319.63;5073896;28;20550;-75
2021/06/23 05:43:20;;;;;;;7.57;5.28;;;;;;;23.71;39.68;102312.75;5073450;28;20073;-74
2021/06/23 05:45:46;;;;;;;11.05;6.30;;;;;;;23.73;40.07;102310.44;5073308;28;20020;-81
2021/06/23 05:48:11;;;;;;;7.93;5.63;;;;;;;23.84;39.78;102316.25;5073741;28;20028;-76
2021/06/23 05:50:39;;;;;;;7.38;5.95;;;;;;;23.72;40.11;102314.38;5073540;28;20028;-76
2021/06/23 05:53:04;;;;;;;11.90;6.70;;;;;;;23.83;40.13;102317.41;5070854;28;20020;-75
2021/06/23 05:55:30;;;;;;;12.88;6.75;;;;;;;23.75;40.39;102324.03;5073449;28;20109;-83
2021/06/23 05:57:56;;;;;;;8.10;5.75;;;;;;;23.84;39.80;102327.41;5073214;28;20041;-79
2021/06/23 06:00:24;;;;;;;7.50;5.15;;;;;;;23.97;39.68;102325.28;5073180;28;20059;-76
2021/06/23 06:02:50;;;;;;;6.70;5.30;;;;;;;23.98;39.91;102321.31;5073261;28;20035;-77
2021/06/23 06:05:16;;;;;;;7.75;5.63;;;;;;;24.01;39.58;102321.38;5055267;28;20394;-87
2021/06/23 06:07:42;;;;;;;7.18;4.90;;;;;;;24.00;39.69;102330.94;5073028;28;20021;-77
2021/06/23 06:10:09;;;;;;;6.57;5.57;;;;;;;24.14;39.56;102319.25;5055432;28;20115;-77
2021/06/23 06:12:35;;;;;;;10.73;5.75;;;;;;;24.14;39.54;102316.47;5073079;28;20035;-90
2021/06/23 06:15:00;;;;;;;8.18;5.20;;;;;;;24.01;39.98;102323.38;5072804;28;20391;-77
2021/06/23 06:17:26;;;;;;;8.02;5.35;;;;;;;23.96;40.15;102329.25;5072896;28;20020;-76
2021/06/23 06:19:52;;;;;;;9.57;5.70;;;;;;;23.90;40.34;102325.13;5072918;28;20160;-76
2021/06/23 06:22:18;;;;;;;5.53;4.95;;;;;;;24.15;39.90;102328.44;5073204;28;20023;-78
2021/06/23 06:24:43;;;;;;;9.27;5.03;;;;;;;24.16;39.93;102322.47;5073626;28;20099;-78
2021/06/23 06:27:09;;;;;;;7.20;4.72;;;;;;;24.23;39.74;102313.44;5073802;28;20060;-76
2021/06/23 06:29:34;;;;;;;6.35;5.47;;;;;;;24.19;39.49;102315.38;5055848;28;20033;-76
2021/06/23 06:32:00;;;;;;;8.18;5.00;;;;;;;24.26;39.60;102313.53;5073572;28;20113;-76
2021/06/23 06:34:26;;;;;;;10.68;6.43;;;;;;;24.24;39.72;102310.28;5073393;28;20039;-77
2021/06/23 06:36:51;;;;;;;8.25;5.78;;;;;;;24.20;39.96;102315.00;5073566;28;20032;-76
2021/06/23 06:39:17;;;;;;;8.18;6.10;;;;;;;24.29;39.91;102320.34;5055357;28;20433;-75
2021/06/23 06:41:43;;;;;;;8.05;4.82;;;;;;;24.18;39.90;102317.38;5073529;28;20032;-77
2021/06/23 06:44:09;;;;;;;5.68;5.05;;;;;;;24.42;39.60;102319.06;5073450;28;20033;-78
2021/06/23 06:46:36;;;;;;;10.93;5.88;;;;;;;24.07;40.24;102313.53;5055503;28;20086;-83
2021/06/23 06:49:02;;;;;;;8.00;6.00;;;;;;;24.32;39.80;102319.59;5056031;28;20024;-80
2021/06/23 06:51:27;;;;;;;7.38;4.90;;;;;;;24.40;39.99;102323.38;5073847;28;20121;-79
2021/06/23 06:53:53;;;;;;;6.22;4.97;;;;;;;24.44;39.67;102321.47;5073821;28;20108;-83
2021/06/23 06:56:19;;;;;;;9.23;6.07;;;;;;;24.54;39.54;102323.66;5073721;28;20686;-83
2021/06/23 06:58:44;;;;;;;9.50;5.03;;;;;;;24.60;39.53;102322.97;5073462;28;20045;-88
2021/06/23 07:01:10;;;;;;;7.75;5.28;;;;;;;24.45;40.02;102323.09;5073660;28;20036;-79
2021/06/23 07:03:35;;;;;;;9.05;5.45;;;;;;;24.29;40.39;102320.34;5073518;28;20074;-83
2021/06/23 07:06:01;;;;;;;6.25;4.15;;;;;;;24.40;39.97;102323.38;5073371;28;20071;-80
2021/06/23 07:08:27;;;;;;;7.50;4.72;;;;;;;24.47;40.13;102323.50;5073436;28;20020;-77
2021/06/23 07:10:52;;;;;;;5.35;4.10;;;;;;;24.28;40.59;102327.13;5073441;28;20027;-77
2021/06/23 07:13:18;;;;;;;4.47;3.80;;;;;;;24.38;39.96;102322.94;5073479;28;20059;-84
2021/06/23 07:15:43;;;;;;;9.65;3.63;;;;;;;24.00;41.36;102335.72;5074379;28;20033;-81
2021/06/23 07:18:09;;;;;;;5.47;3.42;;;;;;;24.33;40.51;102322.09;5072665;28;20085;-91
2021/06/23 07:20:35;;;;;;;7.97;3.75;;;;;;;24.26;40.50;102323.91;5071981;28;20470;-78
2021/06/23 07:23:00;;;;;;;5.82;3.40;;;;;;;24.22;40.43;102321.03;5071369;28;20028;-88
2021/06/23 07:25:26;;;;;;;5.30;3.17;;;;;;;24.34;40.35;102320.91;5074361;28;20086;-78
2021/06/23 07:27:52;;;;;;;11.77;4.07;;;;;;;24.27;40.73;102323.53;5071717;28;20028;-92
2021/06/23 07:30:18;;;;;;;6.65;2.42;;;;;;;24.53;40.04;102325.63;5055083;28;20021;-88
2021/06/23 07:32:50;;;;;;;7.60;3.15;;;;;;;24.55;40.16;102317.69;5072915;28;20029;-89
2021/06/23 07:38:02;;;;;;;4.93;2.38;;;;;;;24.43;40.51;102320.66;5058998;28;20036;-91
2021/06/23 07:40:53;;;;;;;5.72;1.77;;;;;;;24.55;40.83;102328.06;5057535;28;20025;-78
2021/06/23 07:43:14;;;;;;;5.40;3.00;;;;;;;24.55;40.76;102328.06;5055499;28;20113;-86
2021/06/23 07:45:45;;;;;;;13.48;2.65;;;;;;;24.68;40.60;102323.09;5062201;28;20100;-86
2021/06/23 07:48:10;;;;;;;5.72;1.95;;;;;;;24.69;40.75;102322.72;5072947;28;20020;-81
2021/06/23 07:50:42;;;;;;;7.65;2.90;;;;;;;24.76;40.48;102322.06;5052242;28;20029;-75
2021/06/23 07:53:32;;;;;;;6.10;2.58;;;;;;;24.79;40.43;102327.72;5055452;28;20119;-75
2021/06/23 07:56:23;;;;;;;5.75;1.63;;;;;;;24.60;41.07;102331.34;5071394;28;20044;-90
2021/06/23 08:09:55;;;;;;;13.63;5.93;;;;;;;24.85;40.82;102322.59;5072297;28;20017;-76
2021/06/23 08:12:27;;;;;;;10.48;1.40;;;;;;;24.97;40.92;102328.03;5055543;28;20021;-90
2021/06/23 08:14:53;;;;;;;9.27;3.30;;;;;;;25.10;40.72;102331.47;5065692;28;20020;-77
2021/06/23 08:17:19;;;;;;;3.42;1.67;;;;;;;25.24;40.22;102328.06;5055116;28;20029;-76
2021/06/23 08:19:44;;;;;;;3.90;1.77;;;;;;;25.16;40.37;102315.97;5053746;28;20115;-76
2021/06/23 08:22:11;;;;;;;4.30;1.55;;;;;;;25.24;40.74;102323.31;5055128;28;20472;-76
2021/06/23 08:24:40;;;;;;;1.42;0.95;;;;;;;25.16;40.47;102318.75;5053717;28;20037;-77
2021/06/23 08:27:07;;;;;;;6.93;2.05;;;;;;;25.21;41.19;102312.84;5058589;28;20032;-91
2021/06/23 08:29:34;;;;;;;5.18;1.98;;;;;;;25.24;40.90;102314.94;5072651;28;20478;-90
2021/06/23 08:32:00;;;;;;;1.90;1.70;;;;;;;24.97;41.43;102316.84;5055201;28;20037;-77
2021/06/23 08:34:28;;;;;;;3.60;1.42;;;;;;;25.17;41.27;102310.03;5054599;28;20573;-91
2021/06/23 08:36:54;;;;;;;7.57;3.83;;;;;;;25.27;40.93;102314.16;5055985;28;20028;-85
2021/06/23 08:39:22;;;;;;;4.20;1.80;;;;;;;25.34;41.08;102313.47;5076197;28;20043;-76
2021/06/23 08:41:49;;;;;;;3.22;1.63;;;;;;;25.41;40.68;102314.38;5075955;28;20039;-77
2021/06/23 08:44:15;;;;;;;7.15;2.75;;;;;;;25.45;40.77;102309.63;5076084;28;20364;-88
2021/06/23 08:46:41;;;;;;;2.45;1.40;;;;;;;25.79;40.34;102308.94;5076992;28;20075;-91
2021/06/23 08:49:08;;;;;;;1.90;1.70;;;;;;;25.43;41.08;102309.19;5077043;28;20028;-90
2021/06/23 08:51:37;;;;;;;5.07;2.53;;;;;;;25.66;40.57;102308.31;5076678;28;20031;-83
2021/06/23 08:54:03;;;;;;;3.53;2.47;;;;;;;25.92;40.23;102308.31;5076461;28;20033;-79
2021/06/23 08:56:29;;;;;;;2.03;1.55;;;;;;;25.70;40.83;102306.41;5076288;28;20428;-81
2021/06/23 08:58:55;;;;;;;2.55;2.15;;;;;;;25.59;41.26;102305.44;5076273;28;20071;-82
2021/06/23 09:01:20;;;;;;;3.40;2.33;;;;;;;25.72;40.60;102306.84;5076064;28;20035;-85
2021/06/23 09:04:00;;;;;;;4.00;2.70;;;;;;;25.78;40.45;102298.94;5075877;28;20035;-80
2021/06/23 09:06:45;;;;;;;3.40;2.47;;;;;;;25.92;40.27;102308.31;5074812;28;20028;-81
2021/06/23 09:09:19;;;;;;;2.92;2.35;;;;;;;25.79;40.91;102304.13;5075610;28;20455;-87
2021/06/23 09:11:45;;;;;;;3.20;2.60;;;;;;;25.33;41.64;102312.66;5075788;28;20067;-81
2021/06/23 09:14:13;;;;;;;4.47;3.17;;;;;;;25.80;40.47;102308.56;5075961;28;20047;-86
2021/06/23 09:17:07;;;;;;;7.07;3.22;;;;;;;25.71;41.51;102305.19;5058193;28;20060;-79
2021/06/23 09:19:36;;;;;;;3.15;2.28;;;;;;;25.95;40.50;102307.53;5065931;28;20079;-89
2021/06/23 09:22:03;;;;;;;4.30;2.63;;;;;;;26.15;39.71;102299.78;5075876;28;20027;-89
2021/06/23 09:24:40;;;;;;;3.13;2.15;;;;;;;26.15;39.98;102297.00;5075720;28;20033;-84
2021/06/23 09:27:19;;;;;;;3.92;2.78;;;;;;;25.97;40.65;102295.97;5075482;28;20478;-78
2021/06/23 09:29:46;;;;;;;4.22;2.25;;;;;;;26.22;40.09;102297.06;5074335;28;20479;-77
2021/06/23 09:32:11;;;;;;;5.25;2.72;;;;;;;26.22;40.31;102307.44;5073003;28;20036;-77
2021/06/23 09:34:42;;;;;;;5.55;2.80;;;;;;;26.32;40.24;102289.97;5072218;28;20031;-83
2021/06/23 09:37:31;;;;;;;4.40;2.97;;;;;;;26.32;40.18;102291.97;5073618;28;20021;-80
2021/06/23 09:40:19;;;;;;;6.03;3.38;;;;;;;26.24;40.59;102300.28;5073198;28;20048;-77
2021/06/23 09:43:00;;;;;;;4.60;3.67;;;;;;;25.88;40.96;102299.06;5073558;28;20612;-80
2021/06/23 09:45:26;;;;;;;6.15;4.05;;;;;;;26.14;40.30;102300.16;5073295;28;20021;-88
2021/06/23 09:48:05;;;;;;;4.25;3.78;;;;;;;26.19;40.21;102295.03;5074902;28;20029;-89
2021/06/23 09:50:33;;;;;;;3.65;3.13;;;;;;;26.47;40.06;102294.56;5054129;28;20029;-82
2021/06/23 09:53:08;;;;;;;6.13;3.83;;;;;;;26.27;40.02;102302.31;5072183;28;20082;-79
2021/06/23 09:55:37;;;;;;;7.10;4.53;;;;;;;26.54;39.52;102297.44;5071268;28;20055;-77
2021/06/23 09:58:13;;;;;;;4.60;3.80;;;;;;;26.49;39.95;102294.16;5073586;28;20045;-78
2021/06/23 10:01:02;;;;;;;4.95;3.85;;;;;;;26.55;39.71;102293.44;5073910;28;20086;-81
2021/06/23 10:03:33;;;;;;;6.17;3.77;;;;;;;26.45;39.95;102293.31;5043560;28;20033;-88
2021/06/23 10:06:18;;;;;;;6.03;4.28;;;;;;;26.43;40.40;102292.91;5073481;28;20049;-78
2021/06/23 10:08:44;;;;;;;6.15;5.03;;;;;;;26.61;39.35;102298.69;5055030;28;20029;-88
2021/06/23 10:11:10;;;;;;;8.02;5.35;;;;;;;26.68;39.54;102296.78;5070267;28;20024;-85
2021/06/23 10:13:36;;;;;;;7.60;5.85;;;;;;;26.60;39.77;102295.09;5073749;28;20025;-78
2021/06/23 10:16:02;;;;;;;9.15;6.13;;;;;;;26.71;39.82;102297.97;5073699;28;20023;-79
2021/06/23 10:18:28;;;;;;;7.22;5.88;;;;;;;26.91;39.48;102296.56;5073972;28;20024;-80
2021/06/23 10:20:54;;;;;;;8.73;6.07;;;;;;;26.81;39.72;102294.47;5073911;28;20103;-77
2021/06/23 10:23:20;;;;;;;12.38;6.63;;;;;;;26.93;39.71;102298.97;5073560;28;20107;-84
2021/06/23 10:25:45;;;;;;;7.00;6.30;;;;;;;27.05;39.36;102293.91;5073596;28;20029;-78
2021/06/23 10:28:11;;;;;;;9.90;6.47;;;;;;;27.17;39.32;102291.97;5073866;28;20028;-77
2021/06/23 10:30:37;;;;;;;9.57;6.32;;;;;;;26.95;39.78;102291.78;5073405;28;20021;-85
2021/06/23 10:33:03;;;;;;;7.82;6.90;;;;;;;26.96;40.09;102289.78;5073073;28;20017;-86
2021/06/23 10:35:29;;;;;;;10.25;7.45;;;;;;;27.00;40.12;102296.22;5071696;28;20694;-82
2021/06/23 10:37:55;;;;;;;8.45;7.63;;;;;;;27.29;39.61;102294.47;5073727;28;20150;-78
2021/06/23 10:40:21;;;;;;;9.82;8.90;;;;;;;27.02;40.06;102294.63;5055322;28;20028;-77
2021/06/23 10:42:48;;;;;;;10.70;9.10;;;;;;;27.35;39.61;102290.09;5072876;28;20019;-88
2021/06/23 10:45:14;;;;;;;10.18;9.00;;;;;;;27.11;40.33;102291.53;5074011;28;20111;-77
2021/06/23 10:47:46;;;;;;;9.98;8.82;;;;;;;27.34;39.74;102299.69;5070364;28;20020;-76
2021/06/23 10:50:17;;;;;;;9.90;8.90;;;;;;;27.36;39.60;102292.53;5073869;28;20581;-77
2021/06/23 10:52:47;;;;;;;8.95;8.05;;;;;;;27.47;40.14;102298.19;5073920;28;20029;-77
2021/06/23 10:55:21;;;;;;;10.02;8.68;;;;;;;27.71;39.77;102302.34;5073217;28;20020;-79
2021/06/23 10:58:03;;;;;;;9.18;7.65;;;;;;;27.71;40.10;102295.94;5061190;28;20044;-83
2021/06/23 11:00:31;;;;;;;12.77;7.13;;;;;;;27.90;39.58;102293.63;5070547;28;20114;-84
2021/06/23 11:03:05;;;;;;;11.88;8.18;;;;;;;27.84;40.00;102291.59;5073360;28;20462;-86
2021/06/23 11:05:38;;;;;;;7.47;5.85;;;;;;;27.81;40.30;102295.16;5071795;28;20028;-79
2021/06/23 11:08:26;;;;;;;7.90;6.05;;;;;;;27.74;40.00;102300.78;5073651;28;20391;-87
2021/06/23 11:10:54;;;;;;;11.35;7.95;;;;;;;27.75;40.03;102300.38;5073296;28;20043;-91
2021/06/23 11:13:30;;;;;;;5.15;4.18;;;;;;;27.82;39.84;102302.41;5074111;28;20017;-92
2021/06/23 11:15:56;;;;;;;7.07;4.95;;;;;;;27.86;39.86;102308.84;5056655;28;20119;-92
2021/06/23 11:18:41;;;;;;;7.93;7.13;;;;;;;28.04;39.73;102294.88;5073255;28;20020;-90
2021/06/23 11:21:06;;;;;;;10.73;6.47;;;;;;;28.13;39.44;102296.13;5073788;28;20024;-94
2021/06/23 11:23:54;;;;;;;7.20;6.50;;;;;;;28.18;39.89;102295.72;5062678;28;20032;-77
2021/06/23 11:26:22;;;;;;;6.55;5.95;;;;;;;28.07;39.76;102299.69;5058059;28;20024;-87
2021/06/23 11:29:10;;;;;;;6.90;6.20;;;;;;;28.14;39.87;102303.34;5057664;28;20021;-78
2021/06/23 11:31:41;;;;;;;7.20;5.90;;;;;;;28.10;39.83;102296.09;5056148;28;20039;-86
2021/06/23 11:34:07;;;;;;;10.90;6.78;;;;;;;28.26;39.56;102298.53;5044207;28;20806;-77
2021/06/23 11:36:33;;;;;;;8.80;5.75;;;;;;;28.19;40.01;102293.72;5056656;28;20112;-86
2021/06/23 11:39:00;;;;;;;6.07;3.60;;;;;;;28.14;39.86;102303.34;5056294;28;20025;-84
2021/06/23 11:41:28;;;;;;;5.13;4.10;;;;;;;28.36;39.58;102297.81;5056551;28;20016;-78
2021/06/23 11:43:53;;;;;;;9.95;4.47;;;;;;;28.10;40.28;102294.09;5056192;28;20050;-78